Time;durP1;ratioP1;P1;durP2;ratioP2;P2;SDS_P1;SDS_P2;PMS_P1;PMS_P2;Temp;Humidity;BMP_temperature;BMP_pressure;BME280_temperature;BME280_humidity;BME280_pressure;Samples;Min_cycle;Max_cycle;Signal;HPM_P1;HPM_P2
2022/07/09 00:01:25;;;;;;;1.60;1.50;;;27.80;73.00;;;;;;5123266;28;20494;-65
2022/07/09 00:03:56;;;;;;;1.47;1.37;;;27.90;73.70;;;;;;5124159;28;20835;-65
2022/07/09 00:06:29;;;;;;;1.70;1.60;;;28.10;73.10;;;;;;5122242;27;20452;-65
2022/07/09 00:09:00;;;;;;;2.10;2.00;;;28.20;72.80;;;;;;5123984;27;20446;-65
2022/07/09 00:11:32;;;;;;;2.70;2.30;;;28.20;73.80;;;;;;5088080;28;20461;-64
2022/07/09 00:14:03;;;;;;;1.63;1.53;;;28.20;74.40;;;;;;5124006;28;20468;-65
2022/07/09 00:16:34;;;;;;;1.60;1.50;;;28.30;73.20;;;;;;5123918;28;20456;-64
2022/07/09 00:19:05;;;;;;;1.40;1.30;;;28.30;70.50;;;;;;5124132;28;20974;-65
2022/07/09 00:21:37;;;;;;;1.70;1.60;;;28.00;71.40;;;;;;5098953;28;20646;-65
2022/07/09 00:24:08;;;;;;;1.70;1.60;;;28.10;73.30;;;;;;5124235;28;20471;-64
2022/07/09 00:26:39;;;;;;;1.50;1.33;;;28.20;73.70;;;;;;5123240;28;20450;-64
2022/07/09 00:29:10;;;;;;;1.57;1.27;;;28.20;74.60;;;;;;5123691;28;20453;-64
2022/07/09 00:31:41;;;;;;;1.03;1.03;;;28.20;73.10;;;;;;5122716;28;20541;-64
2022/07/09 00:34:12;;;;;;;1.33;1.23;;;28.20;74.60;;;;;;5123234;28;20516;-65
2022/07/09 00:36:44;;;;;;;1.60;1.50;;;28.20;72.10;;;;;;5122409;28;20433;-68
2022/07/09 00:39:15;;;;;;;1.37;1.27;;;28.10;73.90;;;;;;5123786;28;20477;-65
2022/07/09 00:41:46;;;;;;;1.10;1.10;;;28.20;74.30;;;;;;5122560;28;20512;-65
2022/07/09 00:44:17;;;;;;;1.63;1.53;;;28.20;72.80;;;;;;5123563;28;20450;-64
2022/07/09 00:46:48;;;;;;;1.47;1.37;;;28.10;72.90;;;;;;5123173;28;20450;-65
2022/07/09 00:49:19;;;;;;;1.87;1.67;;;28.00;74.40;;;;;;5122583;28;20449;-65
2022/07/09 00:51:55;;;;;;;1.47;1.37;;;28.10;72.90;;;;;;5121731;28;20442;-65
2022/07/09 00:54:26;;;;;;;1.47;1.37;;;28.00;74.00;;;;;;5118496;28;20486;-65
2022/07/09 00:56:57;;;;;;;1.50;1.40;;;28.00;73.30;;;;;;5123027;28;20456;-65
2022/07/09 00:59:28;;;;;;;1.50;1.40;;;27.90;73.90;;;;;;5102231;28;20513;-65
2022/07/09 01:02:01;;;;;;;1.00;1.00;;;27.90;74.10;;;;;;5122743;28;20491;-65
2022/07/09 01:04:32;;;;;;;1.37;1.27;;;27.90;74.70;;;;;;5122504;28;20459;-64
2022/07/09 01:07:05;;;;;;;1.53;1.43;;;27.80;74.20;;;;;;5122327;28;20457;-64
2022/07/09 01:09:35;;;;;;;1.47;1.37;;;27.80;75.70;;;;;;5103757;28;20446;-64
2022/07/09 01:12:07;;;;;;;1.70;1.60;;;27.80;73.90;;;;;;5122633;28;20454;-65
2022/07/09 01:14:38;;;;;;;1.20;1.10;;;27.70;74.60;;;;;;5122824;28;20448;-65
2022/07/09 01:17:09;;;;;;;1.63;1.40;;;27.60;74.40;;;;;;5122094;28;20561;-65
2022/07/09 01:19:40;;;;;;;1.40;1.30;;;27.50;75.30;;;;;;5122488;28;20510;-65
2022/07/09 01:22:12;;;;;;;1.37;1.27;;;27.40;75.70;;;;;;5121936;28;20484;-64
2022/07/09 01:24:43;;;;;;;2.83;1.37;;;27.40;75.10;;;;;;5122863;28;20461;-65
2022/07/09 01:27:14;;;;;;;1.33;1.23;;;27.20;77.10;;;;;;5121947;28;20513;-64
2022/07/09 01:29:49;;;;;;;1.47;1.37;;;27.20;76.40;;;;;;5122631;28;20457;-65
2022/07/09 01:32:20;;;;;;;1.87;1.77;;;27.00;77.00;;;;;;5113245;28;20453;-65
2022/07/09 01:34:50;;;;;;;1.20;1.10;;;27.00;78.20;;;;;;5122420;28;20931;-65
2022/07/09 01:37:23;;;;;;;1.50;1.40;;;26.90;78.40;;;;;;5121169;28;20550;-65
2022/07/09 01:39:54;;;;;;;1.47;1.33;;;26.90;77.80;;;;;;5121990;28;20456;-65
2022/07/09 01:42:25;;;;;;;1.30;1.20;;;27.00;78.60;;;;;;5122137;28;20499;-65
2022/07/09 01:44:55;;;;;;;2.50;2.30;;;26.90;77.10;;;;;;5122480;28;20475;-64
2022/07/09 01:47:26;;;;;;;1.60;1.40;;;26.90;78.30;;;;;;5122313;28;20512;-65
2022/07/09 01:49:57;;;;;;;1.77;1.67;;;26.70;79.10;;;;;;5121946;28;20450;-65
2022/07/09 01:52:31;;;;;;;1.97;1.87;;;26.50;79.70;;;;;;5120610;28;20452;-65
2022/07/09 01:55:02;;;;;;;1.20;1.10;;;26.50;81.10;;;;;;5120563;28;20473;-65
2022/07/09 01:57:33;;;;;;;1.57;1.47;;;26.40;81.30;;;;;;5122680;28;20755;-65
2022/07/09 02:00:06;;;;;;;1.10;1.10;;;26.40;81.70;;;;;;5121685;28;20453;-65
2022/07/09 02:02:36;;;;;;;1.30;1.20;;;26.30;82.70;;;;;;5122115;28;20484;-65
2022/07/09 02:05:08;;;;;;;1.40;1.30;;;26.40;81.90;;;;;;5121117;28;20554;-65
2022/07/09 02:07:41;;;;;;;1.67;1.57;;;26.30;82.30;;;;;;5122052;28;20432;-64
2022/07/09 02:10:12;;;;;;;1.00;1.00;;;26.20;82.40;;;;;;5121448;28;20453;-64
2022/07/09 02:12:43;;;;;;;0.90;0.73;;;26.10;83.20;;;;;;5122182;28;20451;-64
2022/07/09 02:15:14;;;;;;;1.20;1.10;;;26.00;83.70;;;;;;5121781;28;20463;-65
2022/07/09 02:17:45;;;;;;;1.10;0.93;;;25.90;84.10;;;;;;5122328;28;20494;-65
2022/07/09 02:20:16;;;;;;;1.37;1.27;;;25.90;83.50;;;;;;5120456;28;20997;-65
2022/07/09 02:22:48;;;;;;;1.67;1.00;;;25.90;84.20;;;;;;5122148;28;20609;-65
2022/07/09 02:25:19;;;;;;;0.70;0.70;;;25.70;84.80;;;;;;5121596;28;20468;-64
2022/07/09 02:27:50;;;;;;;1.17;1.07;;;25.60;85.30;;;;;;5122380;28;20541;-65
2022/07/09 02:30:21;;;;;;;0.87;0.87;;;25.60;85.10;;;;;;5124043;28;20452;-64
2022/07/09 02:32:52;;;;;;;1.07;0.97;;;25.50;84.70;;;;;;5125732;28;20451;-65
2022/07/09 02:35:22;;;;;;;0.97;0.93;;;25.40;85.30;;;;;;5124295;28;20456;-65
2022/07/09 02:37:55;;;;;;;0.70;0.70;;;25.30;86.20;;;;;;5125924;28;20447;-64
2022/07/09 02:40:26;;;;;;;0.77;0.77;;;25.30;86.50;;;;;;5125639;28;20465;-64
2022/07/09 02:42:57;;;;;;;1.53;1.20;;;25.10;86.30;;;;;;5125735;28;20488;-65
2022/07/09 02:45:27;;;;;;;1.40;1.10;;;25.00;87.20;;;;;;5125331;28;20446;-65
2022/07/09 02:47:58;;;;;;;1.20;1.10;;;24.90;88.20;;;;;;5125621;28;20480;-65
2022/07/09 02:50:32;;;;;;;0.80;0.80;;;24.90;88.40;;;;;;5124381;28;20422;-66
2022/07/09 02:53:05;;;;;;;0.80;0.70;;;24.80;89.00;;;;;;5119810;28;20505;-64
2022/07/09 02:55:35;;;;;;;1.43;1.00;;;24.80;88.90;;;;;;5123928;28;20616;-64
2022/07/09 02:58:06;;;;;;;0.67;0.67;;;24.80;89.00;;;;;;5125727;28;20460;-65
2022/07/09 03:00:39;;;;;;;0.90;0.90;;;24.70;89.80;;;;;;5124879;28;20461;-64
2022/07/09 03:03:10;;;;;;;0.90;0.90;;;24.60;89.40;;;;;;5124790;28;20496;-65
2022/07/09 03:05:41;;;;;;;1.10;1.07;;;24.40;89.90;;;;;;5124470;28;20541;-64
2022/07/09 03:08:13;;;;;;;0.73;0.70;;;24.40;90.20;;;;;;5125577;28;20505;-64
2022/07/09 03:10:44;;;;;;;0.73;0.73;;;24.30;90.50;;;;;;5124494;28;20513;-64
2022/07/09 03:13:15;;;;;;;0.90;0.90;;;24.20;90.90;;;;;;5125278;27;20956;-65
2022/07/09 03:15:46;;;;;;;0.90;0.90;;;24.20;90.70;;;;;;5124780;28;20908;-64
2022/07/09 03:18:17;;;;;;;1.37;1.00;;;24.20;91.00;;;;;;5125386;28;20833;-64
2022/07/09 03:20:50;;;;;;;0.83;0.83;;;24.20;91.10;;;;;;5124081;28;20914;-64
2022/07/09 03:23:23;;;;;;;1.30;1.07;;;24.10;91.30;;;;;;5125081;28;20481;-64
2022/07/09 03:25:54;;;;;;;1.03;0.90;;;24.00;91.00;;;;;;5124812;28;20474;-64
2022/07/09 03:28:25;;;;;;;1.00;1.00;;;23.90;91.70;;;;;;5125179;28;20477;-64
2022/07/09 03:30:56;;;;;;;0.90;0.90;;;23.90;91.80;;;;;;5117842;27;20545;-64
2022/07/09 03:33:27;;;;;;;1.10;1.07;;;24.00;91.40;;;;;;5112997;28;20481;-65
2022/07/09 03:35:58;;;;;;;1.00;0.90;;;23.90;91.30;;;;;;5123764;28;20762;-64
2022/07/09 03:38:30;;;;;;;1.23;1.13;;;23.80;91.80;;;;;;5125130;28;20455;-64
2022/07/09 03:41:02;;;;;;;1.20;1.10;;;23.80;92.10;;;;;;5123784;28;20469;-64
2022/07/09 03:43:32;;;;;;;0.73;0.73;;;23.70;91.80;;;;;;5124085;28;20481;-64
2022/07/09 03:46:04;;;;;;;1.23;1.17;;;23.60;91.90;;;;;;5124052;28;20458;-64
2022/07/09 03:48:36;;;;;;;1.20;1.10;;;23.60;92.60;;;;;;5124359;28;20495;-64
2022/07/09 03:51:07;;;;;;;0.90;0.80;;;23.50;92.70;;;;;;5123727;28;20438;-64
2022/07/09 03:53:40;;;;;;;1.07;0.70;;;23.50;92.80;;;;;;5113215;28;20571;-64
2022/07/09 03:56:12;;;;;;;0.90;0.90;;;23.40;93.10;;;;;;5122837;28;20509;-65
2022/07/09 03:58:43;;;;;;;1.23;1.13;;;23.30;93.60;;;;;;5124238;27;20519;-64
2022/07/09 04:01:14;;;;;;;1.20;1.10;;;23.20;93.80;;;;;;5104952;28;20464;-64
2022/07/09 04:03:44;;;;;;;1.33;1.23;;;23.10;93.90;;;;;;5124077;28;20482;-64
2022/07/09 04:06:15;;;;;;;1.43;1.07;;;23.10;94.10;;;;;;5122940;28;20472;-64
2022/07/09 04:08:48;;;;;;;0.93;0.93;;;22.90;94.60;;;;;;5124372;28;20629;-64
2022/07/09 04:11:19;;;;;;;0.93;0.83;;;22.90;94.90;;;;;;5123265;28;20489;-64
2022/07/09 04:13:50;;;;;;;2.17;1.37;;;22.80;95.20;;;;;;5123434;28;20456;-65
2022/07/09 04:16:21;;;;;;;0.93;0.93;;;22.70;96.00;;;;;;5123391;28;20916;-65
2022/07/09 04:18:53;;;;;;;0.87;0.87;;;22.60;96.00;;;;;;5124091;28;20477;-65
2022/07/09 04:21:23;;;;;;;1.13;1.03;;;22.60;96.40;;;;;;5114961;28;20528;-65
2022/07/09 04:23:56;;;;;;;1.00;1.00;;;22.60;96.50;;;;;;5090765;28;20495;-64
2022/07/09 04:26:27;;;;;;;1.40;1.30;;;22.50;96.50;;;;;;5123576;28;20424;-64
2022/07/09 04:28:57;;;;;;;1.83;1.40;;;22.40;96.80;;;;;;5123854;27;20793;-64
2022/07/09 04:31:28;;;;;;;1.07;0.90;;;22.40;97.10;;;;;;5123086;28;20472;-64
2022/07/09 04:33:59;;;;;;;1.07;1.00;;;22.30;97.40;;;;;;5090673;28;20479;-65
2022/07/09 04:36:31;;;;;;;1.67;1.17;;;22.20;97.40;;;;;;5123119;28;20417;-64
2022/07/09 04:39:04;;;;;;;1.50;1.40;;;22.20;97.50;;;;;;5123680;28;20460;-64
2022/07/09 04:41:35;;;;;;;0.90;0.90;;;22.10;97.60;;;;;;5122397;28;20528;-64
2022/07/09 04:44:07;;;;;;;1.13;1.00;;;22.10;97.80;;;;;;5111926;28;20481;-64
2022/07/09 04:46:37;;;;;;;1.70;1.27;;;22.00;97.80;;;;;;5123328;28;20419;-65
2022/07/09 04:49:08;;;;;;;1.77;1.23;;;21.90;98.20;;;;;;5123754;28;20434;-65
2022/07/09 04:51:39;;;;;;;1.10;1.07;;;21.90;97.90;;;;;;5121673;28;20438;-64
2022/07/09 04:54:11;;;;;;;0.73;0.73;;;21.80;98.20;;;;;;5120313;28;20572;-64
2022/07/09 04:56:42;;;;;;;1.13;1.03;;;21.80;98.30;;;;;;5122624;28;20436;-64
2022/07/09 04:59:13;;;;;;;2.30;1.10;;;21.70;98.80;;;;;;5123235;28;20439;-64
2022/07/09 05:01:44;;;;;;;1.00;1.00;;;21.60;99.00;;;;;;5122833;28;20538;-64
2022/07/09 05:04:15;;;;;;;0.93;0.93;;;21.60;99.50;;;;;;5123183;28;20784;-64
2022/07/09 05:06:46;;;;;;;1.00;0.90;;;21.60;99.40;;;;;;5122495;28;20461;-64
2022/07/09 05:09:19;;;;;;;1.33;1.23;;;21.50;99.60;;;;;;5111951;28;20510;-64
2022/07/09 05:11:50;;;;;;;0.70;0.70;;;21.40;99.90;;;;;;5119017;28;20496;-64
2022/07/09 05:14:21;;;;;;;0.87;0.87;;;21.40;99.90;;;;;;5122479;28;20420;-64
2022/07/09 05:16:52;;;;;;;1.00;0.97;;;21.30;99.90;;;;;;5122731;28;20492;-64
2022/07/09 05:19:24;;;;;;;0.90;0.90;;;21.30;99.90;;;;;;5123205;28;20444;-64
2022/07/09 05:21:55;;;;;;;1.20;1.00;;;21.30;99.90;;;;;;5121958;28;20477;-64
2022/07/09 05:24:27;;;;;;;0.80;0.80;;;21.20;99.90;;;;;;5122602;28;21620;-64
2022/07/09 05:26:58;;;;;;;0.77;0.77;;;21.20;99.90;;;;;;5122316;28;20450;-64
2022/07/09 05:29:29;;;;;;;0.90;0.90;;;21.10;99.90;;;;;;5122921;28;20940;-64
2022/07/09 05:32:00;;;;;;;1.13;1.03;;;21.10;99.90;;;;;;5117901;28;20420;-64
2022/07/09 05:34:31;;;;;;;0.80;0.70;;;21.00;99.90;;;;;;5122274;28;20511;-64
2022/07/09 05:37:01;;;;;;;0.90;0.90;;;20.90;99.90;;;;;;5122042;28;20521;-64
2022/07/09 05:39:40;;;;;;;1.23;1.10;;;20.90;99.90;;;;;;5122966;28;20453;-64
2022/07/09 05:42:11;;;;;;;1.10;1.00;;;20.90;99.90;;;;;;5122399;28;20439;-64
2022/07/09 05:44:41;;;;;;;1.40;0.77;;;20.80;99.90;;;;;;5122173;28;20551;-64
2022/07/09 05:47:12;;;;;;;0.60;0.60;;;20.80;99.90;;;;;;5122192;28;20438;-64
2022/07/09 05:49:43;;;;;;;1.33;1.13;;;20.70;99.90;;;;;;5122833;28;20437;-64
2022/07/09 05:52:14;;;;;;;1.30;1.20;;;20.70;99.90;;;;;;5121084;28;20918;-64
2022/07/09 05:54:47;;;;;;;0.83;0.80;;;20.60;99.90;;;;;;5118459;28;20434;-63
2022/07/09 05:57:18;;;;;;;0.70;0.70;;;20.50;99.90;;;;;;5122458;28;20458;-64
2022/07/09 05:59:48;;;;;;;0.80;0.80;;;20.50;99.90;;;;;;5121889;28;20488;-63
2022/07/09 06:02:20;;;;;;;0.83;0.80;;;20.50;99.90;;;;;;5122472;28;20434;-63
2022/07/09 06:04:51;;;;;;;1.00;1.00;;;20.40;99.90;;;;;;5123996;28;20484;-63
2022/07/09 06:07:21;;;;;;;1.00;0.90;;;20.30;99.90;;;;;;5125818;28;20469;-63
2022/07/09 06:10:00;;;;;;;1.30;1.00;;;20.30;99.90;;;;;;5123944;28;20419;-65
2022/07/09 06:12:31;;;;;;;1.20;0.80;;;20.40;99.90;;;;;;5126498;28;20942;-64
2022/07/09 06:15:02;;;;;;;0.70;0.70;;;20.30;99.90;;;;;;5125635;28;20941;-64
2022/07/09 06:17:33;;;;;;;0.90;0.73;;;20.20;99.90;;;;;;5093277;28;20495;-64
2022/07/09 06:20:04;;;;;;;1.10;0.97;;;20.20;99.90;;;;;;5123506;28;20420;-64
2022/07/09 06:22:35;;;;;;;1.20;1.10;;;20.20;99.90;;;;;;5109965;28;20460;-64
2022/07/09 06:25:08;;;;;;;1.53;1.20;;;20.10;99.90;;;;;;5125528;28;20956;-64
2022/07/09 06:27:40;;;;;;;1.10;1.00;;;20.00;99.90;;;;;;5093929;28;20464;-64
2022/07/09 06:30:11;;;;;;;1.00;0.90;;;20.00;99.90;;;;;;5125900;28;20544;-64
2022/07/09 06:32:42;;;;;;;1.20;1.10;;;20.00;99.90;;;;;;5126220;28;20451;-64
2022/07/09 06:35:12;;;;;;;1.10;1.00;;;19.90;99.90;;;;;;5124383;27;20445;-64
2022/07/09 06:37:44;;;;;;;1.30;1.20;;;19.90;99.90;;;;;;5116452;28;20431;-63
2022/07/09 06:40:16;;;;;;;0.90;0.90;;;19.80;99.90;;;;;;5125838;28;20456;-64
2022/07/09 06:42:47;;;;;;;0.70;0.70;;;19.70;99.90;;;;;;5126111;28;20493;-63
2022/07/09 06:45:18;;;;;;;1.20;1.10;;;19.70;99.90;;;;;;5125180;28;20496;-64
2022/07/09 06:47:49;;;;;;;1.00;0.90;;;19.70;99.90;;;;;;5109951;28;20434;-64
2022/07/09 06:50:20;;;;;;;1.93;0.80;;;19.60;99.90;;;;;;5125059;28;20408;-64
2022/07/09 06:52:51;;;;;;;0.93;0.90;;;19.60;99.90;;;;;;5121379;28;20484;-64
2022/07/09 06:55:23;;;;;;;0.90;0.90;;;19.50;99.90;;;;;;5124968;28;20428;-64
2022/07/09 06:57:54;;;;;;;1.20;1.03;;;19.50;99.90;;;;;;5093450;28;20466;-64
2022/07/09 07:00:25;;;;;;;1.27;1.00;;;19.40;99.90;;;;;;5125360;28;20424;-64
2022/07/09 07:02:59;;;;;;;1.80;1.00;;;19.40;99.90;;;;;;5125693;28;20434;-63
2022/07/09 07:05:30;;;;;;;0.80;0.73;;;19.30;99.90;;;;;;5122622;28;20471;-64
2022/07/09 07:08:01;;;;;;;1.17;1.07;;;19.30;99.90;;;;;;5125283;28;20565;-64
2022/07/09 07:10:33;;;;;;;1.13;1.03;;;19.30;99.90;;;;;;5123532;28;20488;-64
2022/07/09 07:13:12;;;;;;;1.13;1.00;;;19.30;99.90;;;;;;5113619;28;20800;-63
2022/07/09 07:15:44;;;;;;;0.97;0.80;;;19.20;99.90;;;;;;5124420;28;20795;-64
2022/07/09 07:18:15;;;;;;;1.03;0.80;;;19.10;99.90;;;;;;5125361;28;20446;-64
2022/07/09 07:20:48;;;;;;;1.33;0.83;;;19.10;99.90;;;;;;5124492;28;20434;-64
2022/07/09 07:23:20;;;;;;;0.90;0.90;;;19.10;99.90;;;;;;5125261;28;20465;-63
2022/07/09 07:25:52;;;;;;;0.93;0.90;;;19.00;99.90;;;;;;5124304;28;20546;-63
2022/07/09 07:28:23;;;;;;;0.70;0.70;;;18.90;99.90;;;;;;5124841;28;20516;-64
2022/07/09 07:30:54;;;;;;;1.23;1.10;;;18.90;99.90;;;;;;5123308;28;20449;-64
2022/07/09 07:33:25;;;;;;;0.70;0.70;;;18.90;99.90;;;;;;5124881;28;20438;-64
2022/07/09 07:35:55;;;;;;;0.97;0.80;;;18.80;99.90;;;;;;5124115;28;20440;-64
2022/07/09 07:38:27;;;;;;;1.00;0.90;;;18.80;99.90;;;;;;5124978;28;20519;-64
2022/07/09 07:41:00;;;;;;;0.93;0.93;;;18.80;99.90;;;;;;5124901;28;20446;-64
2022/07/09 07:43:31;;;;;;;0.80;0.80;;;18.90;99.90;;;;;;5124995;28;20435;-63
2022/07/09 07:46:01;;;;;;;0.90;0.80;;;18.80;99.90;;;;;;5124584;28;20488;-63
2022/07/09 07:48:37;;;;;;;2.03;0.90;;;18.70;99.90;;;;;;5124878;28;20416;-64
2022/07/09 07:51:08;;;;;;;0.70;0.70;;;18.60;99.90;;;;;;5124180;28;20412;-63
2022/07/09 07:53:39;;;;;;;0.87;0.87;;;18.60;99.90;;;;;;5123946;28;20477;-63
2022/07/09 07:56:11;;;;;;;0.90;0.90;;;18.50;99.90;;;;;;5112277;28;20450;-63
2022/07/09 07:58:42;;;;;;;1.20;1.10;;;18.50;99.90;;;;;;5124519;28;20442;-63
2022/07/09 08:01:13;;;;;;;1.33;0.80;;;18.50;99.90;;;;;;5124064;28;20452;-63
2022/07/09 08:03:44;;;;;;;0.80;0.80;;;18.50;99.90;;;;;;5124547;28;20452;-63
2022/07/09 08:06:15;;;;;;;1.10;0.83;;;18.40;99.90;;;;;;5109267;28;20540;-63
2022/07/09 08:08:46;;;;;;;0.60;0.60;;;18.40;99.90;;;;;;5104492;28;20450;-63
2022/07/09 08:11:18;;;;;;;1.20;1.00;;;18.40;99.90;;;;;;5104133;28;20429;-63
2022/07/09 08:13:49;;;;;;;0.80;0.80;;;18.30;99.90;;;;;;5115145;28;20472;-63
2022/07/09 08:16:20;;;;;;;0.83;0.83;;;18.40;99.90;;;;;;5124243;28;20439;-63
2022/07/09 08:18:51;;;;;;;0.90;0.90;;;18.30;99.90;;;;;;5124564;28;20661;-63
2022/07/09 08:21:22;;;;;;;0.97;0.97;;;18.30;99.90;;;;;;5112791;28;20476;-63
2022/07/09 08:23:53;;;;;;;0.70;0.70;;;18.20;99.90;;;;;;5124162;28;20446;-63
2022/07/09 08:26:27;;;;;;;1.00;0.90;;;18.30;99.90;;;;;;5123220;28;20481;-63
2022/07/09 08:28:58;;;;;;;0.70;0.70;;;18.30;99.90;;;;;;5124072;28;20493;-63
2022/07/09 08:31:29;;;;;;;0.90;0.73;;;18.30;99.90;;;;;;5124129;28;20428;-63
2022/07/09 08:33:59;;;;;;;1.17;0.90;;;18.30;99.90;;;;;;5106354;28;20445;-62
2022/07/09 08:36:30;;;;;;;0.97;0.87;;;18.30;99.90;;;;;;5123039;28;20460;-63
2022/07/09 08:39:01;;;;;;;0.77;0.77;;;18.40;99.90;;;;;;5124037;28;20493;-62
2022/07/09 08:41:34;;;;;;;0.80;0.80;;;18.30;99.90;;;;;;5123548;28;20489;-63
2022/07/09 08:44:05;;;;;;;0.80;0.80;;;18.30;99.90;;;;;;5106353;28;20450;-63
2022/07/09 08:46:36;;;;;;;0.73;0.70;;;18.20;99.90;;;;;;5123547;28;20485;-63
2022/07/09 08:49:11;;;;;;;1.50;0.93;;;18.20;99.90;;;;;;5123929;28;20447;-63
2022/07/09 08:51:44;;;;;;;1.27;1.00;;;18.10;99.90;;;;;;5122532;28;20450;-63
2022/07/09 08:54:17;;;;;;;1.33;1.23;;;18.00;99.90;;;;;;5119603;28;20465;-63
2022/07/09 08:56:49;;;;;;;0.80;0.80;;;18.00;99.90;;;;;;5122860;28;20457;-62
2022/07/09 08:59:20;;;;;;;0.83;0.83;;;17.90;99.90;;;;;;5090432;28;20440;-65
2022/07/09 09:01:51;;;;;;;0.97;0.80;;;18.00;99.90;;;;;;5123485;28;20438;-64
2022/07/09 09:04:21;;;;;;;0.90;0.90;;;17.90;99.90;;;;;;5123863;28;20442;-65
2022/07/09 09:06:55;;;;;;;0.90;0.70;;;17.90;99.90;;;;;;5122266;28;20481;-64
2022/07/09 09:09:27;;;;;;;0.77;0.77;;;17.90;99.90;;;;;;5123308;28;20442;-64
2022/07/09 09:12:00;;;;;;;1.10;1.00;;;17.80;99.90;;;;;;5122965;28;20458;-64
2022/07/09 09:14:32;;;;;;;0.80;0.80;;;17.70;99.90;;;;;;5123803;28;20445;-64
2022/07/09 09:17:09;;;;;;;1.13;1.03;;;17.70;99.90;;;;;;5123144;28;20808;-64
2022/07/09 09:19:40;;;;;;;1.10;1.00;;;17.60;99.90;;;;;;5123483;28;20471;-64
2022/07/09 09:22:11;;;;;;;0.80;0.80;;;17.60;99.90;;;;;;5090382;28;21181;-64
2022/07/09 09:24:43;;;;;;;0.70;0.70;;;17.60;99.90;;;;;;5123244;28;20449;-65
2022/07/09 09:27:16;;;;;;;0.67;0.67;;;17.50;99.90;;;;;;5122335;28;20560;-64
2022/07/09 09:29:53;;;;;;;1.20;1.10;;;17.50;99.90;;;;;;5122848;28;20457;-64
2022/07/09 09:32:24;;;;;;;1.20;1.10;;;17.50;99.90;;;;;;5104545;28;20432;-64
2022/07/09 09:34:55;;;;;;;1.23;0.80;;;17.50;99.90;;;;;;5123596;28;20452;-64
2022/07/09 09:37:30;;;;;;;1.10;1.07;;;17.40;99.90;;;;;;5122742;28;20437;-63
2022/07/09 09:40:09;;;;;;;1.17;1.07;;;17.40;99.90;;;;;;5122807;28;20453;-63
2022/07/09 09:42:43;;;;;;;1.50;0.80;;;17.30;99.90;;;;;;5123481;28;20441;-63
2022/07/09 09:45:16;;;;;;;2.23;0.90;;;17.30;99.90;;;;;;5123030;28;20536;-63
2022/07/09 09:47:49;;;;;;;0.97;0.83;;;17.20;99.90;;;;;;5122539;28;20495;-63
2022/07/09 09:50:21;;;;;;;1.00;0.80;;;17.10;99.90;;;;;;5122114;28;20920;-63
2022/07/09 09:52:53;;;;;;;0.90;0.90;;;17.10;99.90;;;;;;5119186;28;20490;-63
2022/07/09 09:55:24;;;;;;;0.70;0.70;;;17.10;99.90;;;;;;5115894;28;21027;-63
2022/07/09 09:57:57;;;;;;;1.10;0.90;;;17.10;99.90;;;;;;5122904;28;20450;-63
2022/07/09 10:00:28;;;;;;;1.07;0.97;;;17.10;99.90;;;;;;5122619;28;20453;-63
2022/07/09 10:03:00;;;;;;;0.80;0.80;;;17.10;99.90;;;;;;5123133;28;20498;-63
2022/07/09 10:05:31;;;;;;;1.20;1.00;;;17.00;99.90;;;;;;5121745;28;20460;-63
2022/07/09 10:08:02;;;;;;;0.80;0.80;;;17.00;99.90;;;;;;5123268;28;20473;-63
2022/07/09 10:10:32;;;;;;;1.10;0.97;;;17.00;99.90;;;;;;5122699;28;20454;-63
2022/07/09 10:13:05;;;;;;;1.20;0.90;;;16.90;99.90;;;;;;5123134;28;20456;-63
2022/07/09 10:15:36;;;;;;;1.10;1.00;;;16.80;99.90;;;;;;5122459;28;20449;-63
2022/07/09 10:18:12;;;;;;;1.30;1.07;;;16.90;99.90;;;;;;5122523;28;20509;-64
2022/07/09 10:20:46;;;;;;;0.87;0.80;;;16.80;99.90;;;;;;5120353;28;20971;-64
2022/07/09 10:23:23;;;;;;;1.10;1.00;;;16.80;99.90;;;;;;5122746;28;20454;-63
2022/07/09 10:25:57;;;;;;;1.60;1.13;;;16.70;99.90;;;;;;5122226;28;20453;-63
2022/07/09 10:28:30;;;;;;;1.10;1.00;;;16.70;99.90;;;;;;5122744;28;20498;-63
2022/07/09 10:31:12;;;;;;;0.97;0.90;;;16.70;99.90;;;;;;5122321;28;20454;-64
2022/07/09 10:33:50;;;;;;;1.47;1.13;;;16.60;99.90;;;;;;5122635;28;20527;-64
2022/07/09 10:36:21;;;;;;;1.57;0.87;;;16.50;99.90;;;;;;5121722;28;20464;-63
2022/07/09 10:38:56;;;;;;;1.10;1.00;;;16.50;99.90;;;;;;5122557;28;20889;-64
2022/07/09 10:41:27;;;;;;;1.10;0.83;;;16.50;99.90;;;;;;5122396;28;20475;-63
2022/07/09 10:44:01;;;;;;;1.17;1.07;;;16.50;99.90;;;;;;5121674;28;20468;-63
2022/07/09 10:46:32;;;;;;;1.23;0.90;;;16.50;99.90;;;;;;5122388;28;20463;-64
2022/07/09 10:49:04;;;;;;;1.10;1.00;;;16.50;99.90;;;;;;5122443;28;20475;-64
2022/07/09 10:51:36;;;;;;;0.93;0.93;;;16.50;99.90;;;;;;5124565;28;20442;-63
2022/07/09 10:54:17;;;;;;;1.27;1.17;;;16.50;99.90;;;;;;5121653;28;20503;-64
2022/07/09 10:56:49;;;;;;;1.30;1.13;;;16.40;99.90;;;;;;5126512;28;20465;-64
2022/07/09 10:59:22;;;;;;;0.83;0.83;;;16.40;99.90;;;;;;5093157;28;20446;-63
2022/07/09 11:01:55;;;;;;;1.30;1.20;;;16.40;99.90;;;;;;5125647;28;20445;-63
2022/07/09 11:04:28;;;;;;;1.00;0.90;;;16.40;99.90;;;;;;5125838;28;20521;-63
2022/07/09 11:07:01;;;;;;;1.60;1.20;;;16.40;99.90;;;;;;5124827;28;20578;-64
2022/07/09 11:09:33;;;;;;;1.67;1.10;;;16.30;99.90;;;;;;5126105;28;20449;-64
2022/07/09 11:12:04;;;;;;;2.10;1.47;;;16.30;99.90;;;;;;5125309;28;20464;-63
2022/07/09 11:14:45;;;;;;;1.40;1.00;;;16.20;99.90;;;;;;5125719;27;20982;-63
2022/07/09 11:17:21;;;;;;;1.00;0.80;;;16.20;99.90;;;;;;5125519;28;20464;-63
2022/07/09 11:19:52;;;;;;;3.00;1.47;;;16.20;99.90;;;;;;5126124;28;20531;-63
2022/07/09 11:22:23;;;;;;;1.70;1.20;;;16.20;99.90;;;;;;5124390;28;20537;-63
2022/07/09 11:24:55;;;;;;;1.10;1.00;;;16.20;99.90;;;;;;5125475;28;20529;-63
2022/07/09 11:27:25;;;;;;;0.87;0.87;;;16.20;99.90;;;;;;5125644;28;20477;-63
2022/07/09 11:30:04;;;;;;;1.63;1.20;;;16.20;99.90;;;;;;5125841;27;20458;-63
2022/07/09 11:32:35;;;;;;;1.47;1.13;;;16.20;99.90;;;;;;5125063;28;20789;-63
2022/07/09 11:35:06;;;;;;;1.17;1.07;;;16.20;99.90;;;;;;5124795;28;20445;-63
2022/07/09 11:37:37;;;;;;;1.17;1.07;;;16.20;99.90;;;;;;5125598;28;20445;-63
2022/07/09 11:40:09;;;;;;;1.30;1.20;;;16.20;99.90;;;;;;5124148;28;20926;-63
2022/07/09 11:42:49;;;;;;;1.20;1.10;;;16.10;99.90;;;;;;5121563;28;20434;-64
2022/07/09 11:45:26;;;;;;;1.40;1.30;;;16.00;99.90;;;;;;5124925;28;20442;-63
2022/07/09 11:48:07;;;;;;;1.77;1.37;;;16.00;99.90;;;;;;5125335;28;20490;-63
2022/07/09 11:50:45;;;;;;;0.90;0.90;;;16.00;99.90;;;;;;5092934;28;20450;-63
2022/07/09 11:53:22;;;;;;;1.03;1.00;;;16.00;99.90;;;;;;5095492;28;20778;-63
2022/07/09 11:56:03;;;;;;;1.47;1.37;;;16.00;99.90;;;;;;5118867;28;20450;-63
2022/07/09 11:58:34;;;;;;;1.60;1.43;;;16.00;99.90;;;;;;5124821;28;20537;-64
2022/07/09 12:01:12;;;;;;;1.13;1.03;;;15.90;99.90;;;;;;5124209;28;20460;-64
2022/07/09 12:03:49;;;;;;;2.03;1.23;;;15.90;99.90;;;;;;5124867;28;20430;-63
2022/07/09 12:06:21;;;;;;;1.30;1.20;;;15.90;99.90;;;;;;5123474;28;20456;-63
2022/07/09 12:09:01;;;;;;;2.53;1.40;;;15.80;99.90;;;;;;5124485;28;20499;-63
2022/07/09 12:11:32;;;;;;;1.57;1.47;;;15.80;99.90;;;;;;5123831;28;20912;-64
2022/07/09 12:14:03;;;;;;;1.20;1.10;;;15.80;99.90;;;;;;5124804;28;20450;-63
2022/07/09 12:16:35;;;;;;;1.17;1.07;;;15.70;99.90;;;;;;5123928;28;20453;-63
2022/07/09 12:19:06;;;;;;;1.60;1.33;;;15.60;99.90;;;;;;5124969;28;20537;-65
2022/07/09 12:21:37;;;;;;;2.60;1.23;;;15.50;99.90;;;;;;5119456;28;20447;-63
2022/07/09 12:24:08;;;;;;;1.77;1.23;;;15.50;99.90;;;;;;5124810;28;20524;-63
2022/07/09 12:26:38;;;;;;;1.57;0.77;;;15.50;99.90;;;;;;5123821;28;20453;-63
2022/07/09 12:29:29;;;;;;;1.17;1.10;;;15.50;99.90;;;;;;5124506;28;20487;-63
2022/07/09 12:32:02;;;;;;;1.43;1.33;;;15.50;99.90;;;;;;5123429;28;20454;-63
2022/07/09 12:34:32;;;;;;;1.50;1.10;;;15.50;99.90;;;;;;5123877;28;20457;-64
2022/07/09 12:37:08;;;;;;;3.47;1.20;;;15.50;99.90;;;;;;5122981;28;20450;-63
2022/07/09 12:39:42;;;;;;;1.53;1.43;;;15.40;99.90;;;;;;5123980;28;20446;-63
2022/07/09 12:42:20;;;;;;;1.30;1.20;;;15.40;99.90;;;;;;5124042;28;20449;-63
2022/07/09 12:44:51;;;;;;;1.37;1.20;;;15.30;99.90;;;;;;5107142;28;20450;-63
2022/07/09 12:47:24;;;;;;;1.23;1.13;;;15.40;99.90;;;;;;5123939;28;20902;-64
2022/07/09 12:49:54;;;;;;;1.23;1.13;;;15.40;99.90;;;;;;5123927;28;20481;-64
2022/07/09 12:52:26;;;;;;;1.50;1.10;;;15.50;99.90;;;;;;5122507;28;20547;-64
2022/07/09 12:54:57;;;;;;;1.17;1.07;;;15.50;99.90;;;;;;5115324;28;20823;-64
2022/07/09 12:57:28;;;;;;;2.17;1.10;;;15.50;99.90;;;;;;5123529;28;20453;-64
2022/07/09 13:00:00;;;;;;;2.00;1.50;;;15.50;99.90;;;;;;5122799;28;20483;-64
2022/07/09 13:02:33;;;;;;;1.50;1.40;;;15.60;99.90;;;;;;5123452;28;20460;-64
2022/07/09 13:05:04;;;;;;;1.23;1.10;;;15.60;99.90;;;;;;5123214;28;20437;-64
2022/07/09 13:07:35;;;;;;;1.17;1.00;;;15.60;99.90;;;;;;5123249;28;20441;-64
2022/07/09 13:10:06;;;;;;;1.57;0.97;;;15.60;99.90;;;;;;5094531;28;20481;-63
2022/07/09 13:12:37;;;;;;;2.40;1.37;;;15.60;99.90;;;;;;5099237;28;20454;-64